createdAt,value
2019-05-29T00:03:25.399Z,8.7
2019-05-29T00:08:57.989Z,8.6
2019-05-29T00:14:30.500Z,8.5
2019-05-29T00:20:03.735Z,8.5
2019-05-29T00:25:36.967Z,8.5
2019-05-29T00:31:10.215Z,8.5
2019-05-29T00:36:43.443Z,8.5
2019-05-29T00:42:17.496Z,8.5
2019-05-29T00:47:49.969Z,8.6
2019-05-29T00:53:23.307Z,8.6
2019-05-29T00:58:56.556Z,8.7
2019-05-29T01:04:29.477Z,8.7
2019-05-29T01:10:01.894Z,8.7
2019-05-29T01:15:34.313Z,8.7
2019-05-29T01:21:06.769Z,8.7
2019-05-29T01:26:39.151Z,8.6
2019-05-29T01:32:11.581Z,8.5
2019-05-29T01:37:43.986Z,8.4
2019-05-29T01:43:17.484Z,8.3
2019-05-29T01:48:48.719Z,8.3
2019-05-29T01:54:21.657Z,8.2
2019-05-29T01:59:53.468Z,8.3
2019-05-29T02:05:25.893Z,8.2
2019-05-29T02:10:58.245Z,8.1
2019-05-29T02:16:30.564Z,8.1
2019-05-29T02:22:02.971Z,8.2
2019-05-29T02:27:35.716Z,8.2
2019-05-29T02:33:07.628Z,8.1
2019-05-29T02:38:39.923Z,8
2019-05-29T02:44:12.362Z,8
2019-05-29T02:49:44.681Z,8
2019-05-29T02:55:17.101Z,8
2019-05-29T03:00:49.443Z,8.1
2019-05-29T03:06:22.268Z,8.2
2019-05-29T03:11:54.156Z,8.2
2019-05-29T03:17:27.869Z,8.3
2019-05-29T03:22:58.834Z,8.4
2019-05-29T03:28:32.277Z,8.3
2019-05-29T03:34:03.563Z,8.3
2019-05-29T03:39:35.956Z,8.3
2019-05-29T03:45:08.311Z,8.3
2019-05-29T03:50:40.733Z,8.4
2019-05-29T03:56:13.121Z,8.4
2019-05-29T04:01:45.447Z,8.3
2019-05-29T04:07:17.898Z,8.3
2019-05-29T04:12:50.206Z,8.3
2019-05-29T04:18:22.599Z,8.4
2019-05-29T04:23:55.059Z,8.5
2019-05-29T04:29:28.001Z,8.5
2019-05-29T04:34:59.900Z,8.5
2019-05-29T04:40:32.791Z,8.5
2019-05-29T04:46:04.831Z,8.6
2019-05-29T04:51:37.530Z,8.6
2019-05-29T04:57:09.781Z,8.6
2019-05-29T05:02:42.222Z,8.7
2019-05-29T05:08:14.720Z,8.9
2019-05-29T05:13:47.231Z,9
2019-05-29T05:19:19.858Z,9.1
2019-05-29T05:24:52.391Z,9.3
2019-05-29T05:30:25.028Z,9.6
2019-05-29T05:35:57.708Z,9.7
2019-05-29T05:41:30.742Z,9.7
2019-05-29T05:47:03.096Z,9.9
2019-05-29T05:52:35.804Z,10.1
2019-05-29T05:58:08.543Z,10.2
2019-05-29T06:03:42.382Z,10.2
2019-05-29T06:09:14.202Z,10.2
2019-05-29T06:14:47.036Z,10.5
2019-05-29T06:20:19.959Z,10.3
2019-05-29T06:25:52.780Z,10.5
2019-05-29T06:31:27.244Z,10.8
2019-05-29T06:36:58.553Z,10.9
2019-05-29T06:42:31.462Z,10.4
2019-05-29T06:48:04.458Z,11
2019-05-29T06:53:37.780Z,11.2
2019-05-29T06:59:10.548Z,11.2
2019-05-29T07:04:44.613Z,11.2
2019-05-29T07:10:16.780Z,11.7
2019-05-29T07:15:49.914Z,12.3
2019-05-29T07:21:23.286Z,11.7
2019-05-29T07:26:56.898Z,11.3
2019-05-29T07:32:30.962Z,11.2
2019-05-29T07:38:04.896Z,11.3
2019-05-29T07:43:39.656Z,11.5
2019-05-29T07:49:12.370Z,11.7
2019-05-29T07:54:45.791Z,12.1
2019-05-29T08:00:18.902Z,12.2
2019-05-29T08:05:53.325Z,12.1
2019-05-29T08:11:25.377Z,12.8
2019-05-29T08:16:59.509Z,12.9
2019-05-29T08:22:34.830Z,12.6
2019-05-29T08:28:08.342Z,13
2019-05-29T08:33:42.886Z,13.3
2019-05-29T08:39:33.228Z,13.8
2019-05-29T08:44:52.137Z,13.7
2019-05-29T08:50:26.755Z,14.1
2019-05-29T08:56:01.725Z,13.2
2019-05-29T09:01:36.282Z,13.7
2019-05-29T09:07:10.811Z,13.3
2019-05-29T09:12:51.482Z,13.8
2019-05-29T09:18:21.468Z,13.1
2019-05-29T09:23:58.413Z,13
2019-05-29T09:29:28.671Z,13.4
2019-05-29T09:35:02.961Z,13.1
2019-05-29T09:40:37.328Z,13.3
2019-05-29T09:46:11.934Z,12.8
2019-05-29T09:51:45.962Z,12.9
2019-05-29T09:57:20.099Z,13.1
2019-05-29T10:02:54.247Z,13.7
2019-05-29T10:08:27.492Z,15.3
2019-05-29T10:14:02.851Z,14.3
2019-05-29T10:19:37.892Z,13.6
2019-05-29T10:25:12.857Z,14.4
2019-05-29T10:30:48.332Z,16
2019-05-29T10:36:23.502Z,14.6
2019-05-29T10:41:58.399Z,13.7
2019-05-29T10:47:33.021Z,13.7
2019-05-29T10:53:07.584Z,13.7
2019-05-29T10:58:49.338Z,14.1
2019-05-29T11:04:16.077Z,14.5
2019-05-29T11:09:52.075Z,14.7
2019-05-29T11:15:25.547Z,14.2
2019-05-29T11:21:00.219Z,14.1
2019-05-29T11:26:34.734Z,14
2019-05-29T11:32:09.302Z,14.3
2019-05-29T11:37:43.833Z,14.8
2019-05-29T11:43:18.601Z,14.4
2019-05-29T11:48:55.236Z,14.7
2019-05-29T11:54:27.463Z,14.8
2019-05-29T12:00:13.928Z,15
2019-05-29T12:05:37.945Z,14.4
2019-05-29T12:11:11.913Z,14.9
2019-05-29T12:16:46.844Z,15.6
2019-05-29T12:22:22.235Z,16.6
2019-05-29T12:27:58.989Z,16.4
2019-05-29T12:33:37.773Z,15.9
2019-05-29T12:39:13.332Z,16.5
2019-05-29T12:44:48.975Z,16.6
2019-05-29T12:50:24.413Z,17.3
2019-05-29T12:56:00.537Z,15.3
2019-05-29T13:01:35.290Z,16.3
2019-05-29T13:07:10.299Z,15
2019-05-29T13:12:45.064Z,14.7
2019-05-29T13:18:19.716Z,14.7
2019-05-29T13:23:54.178Z,14.8
2019-05-29T13:29:28.698Z,15.1
2019-05-29T13:35:04.209Z,14.9
2019-05-29T13:40:37.663Z,14.3
2019-05-29T13:46:12.128Z,14.4
2019-05-29T13:51:46.461Z,14.5
2019-05-29T13:57:20.872Z,14.4
2019-05-29T14:02:55.192Z,14.5
2019-05-29T14:08:29.495Z,14.8
2019-05-29T14:14:04.572Z,14.5
2019-05-29T14:19:38.383Z,14.8
2019-05-29T14:25:12.805Z,14.8
2019-05-29T14:30:47.097Z,15.4
2019-05-29T14:36:21.549Z,14.5
2019-05-29T14:41:56.072Z,14.3
2019-05-29T14:47:30.471Z,14.3
2019-05-29T14:53:05.107Z,14.6
2019-05-29T14:58:39.000Z,15
2019-05-29T15:04:14.639Z,15.2
2019-05-29T15:09:48.964Z,15.2
2019-05-29T15:15:23.522Z,15.1
2019-05-29T15:20:58.181Z,15
2019-05-29T15:26:32.809Z,14.9
2019-05-29T15:32:08.249Z,14.8
2019-05-29T15:37:41.167Z,14.7
2019-05-29T15:43:15.302Z,14.5
2019-05-29T15:48:49.288Z,13.9
2019-05-29T15:54:23.618Z,14.1
2019-05-29T15:59:57.932Z,13.8
2019-05-29T16:05:32.190Z,13.7
2019-05-29T16:11:06.278Z,13.9
2019-05-29T16:16:40.262Z,13.6
2019-05-29T16:22:14.479Z,13.5
2019-05-29T16:27:47.737Z,13.7
2019-05-29T16:33:21.099Z,14
2019-05-29T16:38:54.998Z,14.7
2019-05-29T16:44:29.960Z,15.2
2019-05-29T16:50:04.986Z,14.3
2019-05-29T16:55:52.907Z,14
2019-05-29T17:01:13.304Z,14.1
2019-05-29T17:06:46.272Z,14
2019-05-29T17:12:20.479Z,13.1
2019-05-29T17:17:54.348Z,13
2019-05-29T17:23:28.537Z,12.6
2019-05-29T17:29:02.558Z,12.4
2019-05-29T17:34:36.581Z,12.4
2019-05-29T17:40:10.610Z,12.4
2019-05-29T17:45:44.586Z,12.4
2019-05-29T17:51:19.704Z,12.3
2019-05-29T17:56:53.036Z,12.2
2019-05-29T18:02:26.572Z,12.1
2019-05-29T18:08:01.767Z,12.1
2019-05-29T18:13:34.548Z,12.1
2019-05-29T18:19:08.692Z,12
2019-05-29T18:24:42.748Z,11.8
2019-05-29T18:30:16.566Z,11.6
2019-05-29T18:35:50.424Z,11.5
2019-05-29T18:41:24.400Z,11.6
2019-05-29T18:46:57.379Z,11.7
2019-05-29T18:52:30.284Z,11.6
2019-05-29T18:58:03.130Z,11.5
2019-05-29T19:03:35.978Z,11.1
2019-05-29T19:09:08.987Z,11
2019-05-29T19:14:42.612Z,11
2019-05-29T19:20:16.210Z,10.9
2019-05-29T19:25:49.602Z,10.9
2019-05-29T19:31:23.053Z,11
2019-05-29T19:36:56.273Z,10.9
2019-05-29T19:42:30.219Z,10.9
2019-05-29T19:48:03.012Z,10.8
2019-05-29T19:53:35.801Z,10.7
2019-05-29T19:59:08.263Z,10.3
2019-05-29T20:04:40.902Z,10.4
2019-05-29T20:10:14.017Z,10.6
2019-05-29T20:15:46.544Z,10.5
2019-05-29T20:21:19.082Z,10.6
2019-05-29T20:26:51.861Z,10.6
2019-05-29T20:32:24.331Z,10.5
2019-05-29T20:37:57.133Z,9.8
2019-05-29T20:43:31.489Z,9.5
2019-05-29T20:49:02.761Z,9.5
2019-05-29T20:54:35.539Z,9.7
2019-05-29T21:00:07.527Z,10
2019-05-29T21:05:40.800Z,10
2019-05-29T21:11:12.446Z,9.7
2019-05-29T21:16:44.818Z,9.5
2019-05-29T21:22:17.305Z,8.5
2019-05-29T21:27:49.809Z,8.7
2019-05-29T21:33:21.866Z,9.4
2019-05-29T21:38:54.268Z,9.1
2019-05-29T21:44:26.588Z,8.8
2019-05-29T21:49:58.946Z,8.7
2019-05-29T21:55:31.260Z,8.6
2019-05-29T22:01:03.616Z,8.6
2019-05-29T22:06:35.901Z,8.6
2019-05-29T22:12:09.556Z,8.3
2019-05-29T22:17:41.940Z,8.4
2019-05-29T22:23:15.074Z,8.9
2019-05-29T22:28:48.202Z,8.8
2019-05-29T22:34:21.356Z,8.6
2019-05-29T22:39:55.456Z,9
2019-05-29T22:45:27.653Z,8.8
2019-05-29T22:51:00.538Z,8
2019-05-29T22:56:33.666Z,7.8
2019-05-29T23:02:05.962Z,7.6
2019-05-29T23:07:38.546Z,7.7
2019-05-29T23:13:11.624Z,7.7
2019-05-29T23:18:43.829Z,7.7
2019-05-29T23:24:16.013Z,7.6
2019-05-29T23:29:49.458Z,7.7
2019-05-29T23:35:20.550Z,7.4
2019-05-29T23:40:53.178Z,7.5
2019-05-29T23:46:25.559Z,7.3
2019-05-29T23:51:57.910Z,7.5
2019-05-29T23:57:30.107Z,7.3
